logo
Search for airport 
image banner adimage banner adimage banner ad
image banner ad

SNWS - Doutor Lúcio Lima

Located in Crateús, Brazil

ICAO - SNWS, IATA -

Data provided by Airmate  

General information

Coordinates: S5°12'40" W40°42'15"
Elevation is 1043 feet MSL.
Magnetic variation is -21° East
View others Airports in Ceará

Operational data

Special qualification required
Current time UTC:
Current local time:
Weather at : - ( 0 km )
METAR: ZMUB 131600Z 33008MPS 9999 FEW030CB BKN033 M01/M04 Q0996 NOSIG RMK QFE641.8 76 NT
View NOTAMs / SUP AIP / TFR affecting this airport [VIEW]
Communications frequencies: [VIEW]

Runways:

RWY identifierQFULength (ft)Width (ft)SurfaceLDA (ft)
26492198ASPH
08492198ASPH

Airport contact information

Address: Crateús Brazil

Satellite view of SNWS